Time;durP1;ratioP1;P1;durP2;ratioP2;P2;SDS_P1;SDS_P2;PMS_P1;PMS_P2;Temp;Humidity;BMP_temperature;BMP_pressure;BME280_temperature;BME280_humidity;BME280_pressure;Samples;Min_cycle;Max_cycle;Signal;HPM_P1;HPM_P2
2021/10/29 00:02:48;;;;;;;27.30;22.57;;;8.80;99.90;;;;;;5074505;28;20489;-86
2021/10/29 00:05:16;;;;;;;26.57;19.63;;;;;;;;;;5076061;28;20510;-86
2021/10/29 00:07:51;;;;;;;28.60;20.80;;;;;;;;;;5075845;28;20438;-86
2021/10/29 00:10:19;;;;;;;33.23;20.53;;;;;;;;;;5075114;28;20447;-86
2021/10/29 00:12:48;;;;;;;28.33;20.10;;;;;;;;;;5074783;28;20452;-86
2021/10/29 00:15:16;;;;;;;28.10;20.40;;;;;;;;;;5075014;28;20428;-87
2021/10/29 00:17:45;;;;;;;30.63;21.30;;;;;;;;;;5076423;28;20541;-85
2021/10/29 00:20:14;;;;;;;31.53;22.33;;;;;;;;;;5076890;28;20463;-86
2021/10/29 00:22:44;;;;;;;28.90;21.03;;;;;;;;;;5076290;28;20461;-87
2021/10/29 00:25:13;;;;;;;36.53;24.00;;;8.70;99.90;;;;;;5076812;28;20402;-85
2021/10/29 00:27:55;;;;;;;38.03;22.70;;;;;;;;;;5075526;28;20449;-86
2021/10/29 00:30:29;;;;;;;33.10;21.37;;;;;;;;;;5074026;28;20438;-85
2021/10/29 00:33:06;;;;;;;31.73;22.67;;;;;;;;;;5073445;28;20834;-86
2021/10/29 00:35:35;;;;;;;29.60;23.07;;;;;;;;;;5074577;28;20918;-84
2021/10/29 00:38:10;;;;;;;30.40;22.23;;;;;;;;;;5076643;28;20462;-86
2021/10/29 00:40:46;;;;;;;40.17;21.67;;;;;;;;;;5076145;28;20438;-86
2021/10/29 00:43:16;;;;;;;36.70;22.93;;;;;;;;;;5076375;28;20463;-85
2021/10/29 00:46:05;;;;;;;30.03;22.67;;;;;;;;;;5076040;28;20436;-85
2021/10/29 00:48:34;;;;;;;32.77;23.57;;;;;;;;;;5077472;28;20426;-85
2021/10/29 00:51:01;;;;;;;31.10;22.77;;;8.60;99.90;;;;;;5077167;28;20480;-85
2021/10/29 00:53:28;;;;;;;35.30;24.07;;;8.50;99.90;;;;;;5077106;28;20485;-85
2021/10/29 00:55:57;;;;;;;36.00;23.33;;;;;;;;;;5076848;28;20441;-85
2021/10/29 00:58:24;;;;;;;34.20;23.30;;;8.60;99.90;;;;;;5077347;28;20458;-85
2021/10/29 01:01:11;;;;;;;35.40;23.43;;;8.70;99.90;;;;;;5078272;28;20424;-85
2021/10/29 01:03:39;;;;;;;29.23;21.77;;;8.50;99.90;;;;;;5078223;28;20461;-84
2021/10/29 01:06:07;;;;;;;33.37;22.43;;;;;;;;;;5078978;28;20433;-85
2021/10/29 01:08:34;;;;;;;32.60;23.70;;;8.40;99.90;;;;;;5078980;28;20556;-84
2021/10/29 01:11:13;;;;;;;29.67;22.55;;;8.60;99.90;;;;;;5078998;28;20408;-85
2021/10/29 01:13:50;;;;;;;36.20;23.00;;;8.00;99.90;;;;;;5078976;28;20218;-85
2021/10/29 01:16:17;;;;;;;39.37;23.73;;;8.30;99.90;;;;;;5078814;28;20404;-83
2021/10/29 01:18:48;;;;;;;38.77;23.90;;;;;;;;;;5078495;28;20465;-85
2021/10/29 01:21:16;;;;;;;33.53;23.87;;;;;;;;;;5077915;28;20417;-84
2021/10/29 01:23:47;;;;;;;35.50;23.30;;;;;;;;;;5078162;28;20480;-84
2021/10/29 01:26:17;;;;;;;35.80;24.10;;;8.10;99.90;;;;;;5077364;28;20449;-85
2021/10/29 01:28:45;;;;;;;38.47;23.70;;;;;;;;;;5075856;28;20438;-85
2021/10/29 01:31:12;;;;;;;33.53;23.30;;;;;;;;;;5076112;28;20513;-84
2021/10/29 01:33:39;;;;;;;33.00;23.93;;;;;;;;;;5075549;28;20491;-84
2021/10/29 01:36:06;;;;;;;35.93;25.47;;;8.00;99.90;;;;;;5075113;28;20433;-85
2021/10/29 01:38:36;;;;;;;37.17;24.87;;;7.90;99.90;;;;;;5074966;28;20477;-85
2021/10/29 01:41:04;;;;;;;36.25;24.25;;;8.00;99.90;;;;;;5075876;28;20430;-85
2021/10/29 01:43:31;;;;;;;41.13;25.77;;;6.90;99.90;;;;;;5075049;28;20294;-85
2021/10/29 01:45:58;;;;;;;39.70;25.80;;;7.90;99.90;;;;;;5074056;28;20500;-85
2021/10/29 01:48:26;;;;;;;37.35;24.85;;;7.90;99.90;;;;;;5068666;28;20198;-85
2021/10/29 01:50:53;;;;;;;35.10;24.50;;;7.90;99.90;;;;;;5065485;28;20215;-85
2021/10/29 01:53:21;;;;;;;35.65;24.67;;;7.90;99.90;;;;;;5066117;28;20466;-85
2021/10/29 01:55:49;;;;;;;34.92;24.25;;;7.80;99.90;;;;;;5065644;28;20239;-86
2021/10/29 01:58:16;;;;;;;33.70;24.65;;;7.80;99.90;;;;;;5066062;28;20222;-85
2021/10/29 02:00:43;;;;;;;35.73;23.23;;;7.80;99.90;;;;;;5076871;28;20254;-85
2021/10/29 02:03:10;;;;;;;33.45;24.30;;;7.40;99.90;;;;;;5075975;28;20480;-85
2021/10/29 02:05:37;;;;;;;36.85;25.92;;;7.70;99.90;;;;;;5067153;28;20257;-85
2021/10/29 02:08:04;;;;;;;37.80;25.98;;;7.60;99.90;;;;;;5065696;28;20199;-85
2021/10/29 02:10:31;;;;;;;40.20;25.60;;;7.70;99.90;;;;;;5068171;28;20215;-85
2021/10/29 02:12:59;;;;;;;32.83;24.03;;;;;;;;;;5067005;28;20693;-85
2021/10/29 02:15:26;;;;;;;39.72;27.13;;;7.30;99.90;;;;;;5064420;28;20842;-85
2021/10/29 02:17:52;;;;;;;35.20;25.17;;;7.50;99.90;;;;;;5073664;28;20223;-84
2021/10/29 02:20:19;;;;;;;38.10;24.90;;;7.50;99.90;;;;;;5077690;28;20191;-84
2021/10/29 02:22:46;;;;;;;38.92;27.38;;;7.60;99.90;;;;;;5076269;28;20423;-84
2021/10/29 02:25:13;;;;;;;40.45;26.90;;;7.60;99.90;;;;;;5073182;28;20221;-85
2021/10/29 02:27:39;;;;;;;41.30;26.55;;;7.40;99.90;;;;;;5072648;28;20233;-85
2021/10/29 02:30:10;;;;;;;37.17;26.15;;;7.40;99.90;;;;;;5073850;28;20210;-86
2021/10/29 02:32:37;;;;;;;36.85;27.05;;;7.30;99.90;;;;;;5068277;28;20218;-85
2021/10/29 02:35:04;;;;;;;36.22;25.48;;;;;;;;;;5067437;28;20720;-85
2021/10/29 02:37:31;;;;;;;37.10;24.95;;;7.40;99.90;;;;;;5066680;28;20219;-85
2021/10/29 02:40:04;;;;;;;35.40;25.85;;;8.30;99.90;;;;;;5066243;28;20199;-85
2021/10/29 02:42:31;;;;;;;33.97;24.35;;;;;;;;;;5065695;28;20207;-85
2021/10/29 02:45:04;;;;;;;33.95;24.88;;;7.30;99.90;;;;;;5065032;28;20221;-85
2021/10/29 02:47:33;;;;;;;43.63;27.15;;;;;;;;;;5066408;28;20191;-85
2021/10/29 02:50:00;;;;;;;37.10;25.55;;;7.60;99.90;;;;;;5064265;28;20199;-85
2021/10/29 02:52:27;;;;;;;35.28;25.10;;;6.80;99.90;;;;;;5066321;28;20215;-85
2021/10/29 02:54:54;;;;;;;35.25;25.80;;;8.60;99.90;;;;;;5065957;28;20202;-86
2021/10/29 02:57:20;;;;;;;36.55;25.02;;;7.20;99.90;;;;;;5066215;28;20207;-86
2021/10/29 02:59:47;;;;;;;34.70;26.05;;;7.30;99.90;;;;;;5069406;28;20203;-85
2021/10/29 03:02:14;;;;;;;41.58;25.30;;;;;;;;;;5076084;28;20246;-84
2021/10/29 03:04:44;;;;;;;40.70;26.13;;;7.20;99.90;;;;;;5079878;28;20216;-84
2021/10/29 03:07:53;;;;;;;43.67;29.38;;;7.20;99.90;;;;;;5078094;28;20427;-84
2021/10/29 03:10:29;;;;;;;34.88;26.45;;;;;;;;;;5072650;28;20210;-85
2021/10/29 03:13:00;;;;;;;39.25;28.80;;;;;;;;;;5069563;28;20448;-85
2021/10/29 03:15:27;;;;;;;37.03;27.02;;;;;;;;;;5071052;28;20179;-86
2021/10/29 03:17:53;;;;;;;34.20;25.80;;;7.00;99.90;;;;;;5068477;28;20223;-84
2021/10/29 03:20:22;;;;;;;39.55;26.27;;;7.00;99.90;;;;;;5067285;28;20206;-85
2021/10/29 03:22:49;;;;;;;41.28;27.02;;;7.20;99.90;;;;;;5066963;28;20229;-85
2021/10/29 03:28:26;;;;;;;38.67;25.33;;;;;;;;;;5066973;28;20215;-85
2021/10/29 03:30:56;;;;;;;36.08;25.77;;;;;;;;;;5068419;28;20207;-85
2021/10/29 03:33:23;;;;;;;36.90;25.63;;;;;;;;;;5068600;28;20398;-86
2021/10/29 03:35:53;;;;;;;39.15;28.08;;;6.90;99.90;;;;;;5070980;28;20228;-86
2021/10/29 03:41:07;;;;;;;35.78;25.73;;;6.50;99.90;;;;;;5067204;28;20229;-85
2021/10/29 03:43:37;;;;;;;44.25;27.42;;;6.50;99.90;;;;;;5049844;28;20281;-85
2021/10/29 03:46:07;;;;;;;43.63;27.20;;;6.50;99.90;;;;;;5068175;28;20195;-86
2021/10/29 03:51:35;;;;;;;50.25;32.97;;;;;;;;;;5045252;28;20195;-85
2021/10/29 03:54:06;;;;;;;46.33;29.15;;;6.60;99.90;;;;;;5070048;28;20247;-85
2021/10/29 03:56:41;;;;;;;43.97;29.60;;;6.90;99.90;;;;;;5066211;28;20192;-86
2021/10/29 03:59:20;;;;;;;46.88;29.30;;;;;;;;;;5070336;28;20230;-86
2021/10/29 04:01:46;;;;;;;41.42;29.38;;;6.70;99.90;;;;;;5068690;28;20202;-86
2021/10/29 04:04:13;;;;;;;42.70;28.92;;;;;;;;;;5065774;28;20696;-86
2021/10/29 04:06:41;;;;;;;50.75;30.30;;;6.70;99.90;;;;;;5066665;28;20202;-86
2021/10/29 04:09:08;;;;;;;47.55;29.75;;;;;;;;;;5066084;28;20199;-86
2021/10/29 04:11:38;;;;;;;39.05;28.33;;;6.60;99.90;;;;;;5067519;28;20237;-86
2021/10/29 04:14:07;;;;;;;40.53;28.88;;;6.60;99.90;;;;;;5077009;28;20221;-85
2021/10/29 04:16:36;;;;;;;43.90;28.45;;;6.60;99.90;;;;;;5073332;28;20225;-86
2021/10/29 04:19:03;;;;;;;49.08;26.52;;;6.00;99.90;;;;;;5067615;28;20223;-85
2021/10/29 04:21:30;;;;;;;36.90;27.43;;;6.30;99.90;;;;;;5066581;28;20199;-86
2021/10/29 04:23:58;;;;;;;39.10;23.83;;;6.50;99.90;;;;;;5065852;28;20480;-85
2021/10/29 04:26:25;;;;;;;38.97;26.42;;;6.40;99.90;;;;;;5066303;28;20207;-85
2021/10/29 04:28:54;;;;;;;44.55;27.10;;;6.40;99.90;;;;;;5067083;28;20195;-85
2021/10/29 04:31:24;;;;;;;46.13;31.23;;;6.50;99.90;;;;;;5067218;28;20206;-85
2021/10/29 04:33:52;;;;;;;37.80;26.73;;;6.50;99.90;;;;;;5069361;28;20207;-85
2021/10/29 04:36:19;;;;;;;41.05;27.23;;;6.50;99.90;;;;;;5075928;28;20203;-85
2021/10/29 04:38:47;;;;;;;43.92;27.80;;;;;;;;;;5078736;28;20222;-85
2021/10/29 04:41:15;;;;;;;41.35;27.10;;;6.50;99.90;;;;;;5079731;28;20222;-84
2021/10/29 04:43:42;;;;;;;44.25;28.02;;;6.50;99.90;;;;;;5079344;28;20215;-85
2021/10/29 04:46:10;;;;;;;39.13;26.80;;;6.50;99.90;;;;;;5077105;28;20187;-85
2021/10/29 04:48:37;;;;;;;43.33;27.75;;;6.60;99.90;;;;;;5071119;28;20183;-85
2021/10/29 04:51:09;;;;;;;49.45;29.00;;;6.60;99.90;;;;;;5079115;28;20221;-84
2021/10/29 04:53:36;;;;;;;44.97;27.60;;;6.50;99.90;;;;;;5076043;28;20230;-85
2021/10/29 04:56:04;;;;;;;43.53;28.33;;;6.50;99.90;;;;;;5072349;28;20214;-85
2021/10/29 04:58:32;;;;;;;37.55;25.65;;;;;;;;;;5071630;28;20223;-85
2021/10/29 05:00:59;;;;;;;39.03;28.27;;;6.30;99.90;;;;;;5071205;28;20210;-85
2021/10/29 05:03:35;;;;;;;41.17;28.77;;;;;;;;;;5074314;28;20222;-86
2021/10/29 05:06:05;;;;;;;46.13;27.90;;;6.30;99.90;;;;;;5071887;28;20203;-85
2021/10/29 05:08:35;;;;;;;42.22;27.35;;;6.30;99.90;;;;;;5075200;28;20198;-86
2021/10/29 05:11:04;;;;;;;44.78;29.88;;;;;;;;;;5072853;28;20203;-86
2021/10/29 05:13:48;;;;;;;42.78;28.52;;;;;;;;;;5071220;28;20229;-87
2021/10/29 05:16:23;;;;;;;39.42;28.05;;;;;;;;;;5071671;28;20183;-86
2021/10/29 05:18:50;;;;;;;48.72;29.17;;;;;;;;;;5070571;28;20245;-86
2021/10/29 05:21:25;;;;;;;38.80;27.27;;;;;;;;;;5069433;28;20211;-86
2021/10/29 05:23:51;;;;;;;39.25;28.13;;;6.40;99.90;;;;;;5082824;22;20297;-84
2021/10/29 05:26:18;;;;;;;45.35;28.23;;;;;;;;;;5074905;28;20211;-85
2021/10/29 05:28:47;;;;;;;43.33;27.60;;;6.20;99.90;;;;;;5073266;28;20203;-84
2021/10/29 05:31:13;;;;;;;44.63;29.02;;;6.20;99.90;;;;;;5073192;28;20267;-85
2021/10/29 05:33:41;;;;;;;40.28;26.98;;;6.50;99.90;;;;;;5080179;28;20226;-85
2021/10/29 05:36:08;;;;;;;39.05;27.85;;;;;;;;;;5086286;28;20255;-84
2021/10/29 05:38:34;;;;;;;46.40;29.17;;;6.20;99.90;;;;;;5085875;28;20304;-85
2021/10/29 05:41:02;;;;;;;41.22;27.52;;;6.00;99.90;;;;;;5084821;28;20230;-83
2021/10/29 05:43:29;;;;;;;48.53;27.52;;;6.00;99.90;;;;;;5087750;28;20222;-85
2021/10/29 05:45:57;;;;;;;39.15;25.30;;;6.10;99.90;;;;;;5092551;28;20206;-84
2021/10/29 05:48:24;;;;;;;37.03;26.48;;;6.10;99.90;;;;;;5092183;28;20206;-85
2021/10/29 05:50:52;;;;;;;40.97;29.13;;;;;;;;;;5086108;28;20206;-85
2021/10/29 05:53:33;;;;;;;45.28;27.15;;;6.20;99.90;;;;;;5084776;28;20714;-86
2021/10/29 05:56:00;;;;;;;37.90;27.02;;;5.90;99.90;;;;;;5084625;28;20186;-85
2021/10/29 05:58:28;;;;;;;44.15;27.95;;;6.40;99.90;;;;;;5083945;28;20245;-85
2021/10/29 06:00:54;;;;;;;47.50;27.30;;;6.10;99.90;;;;;;5096081;28;20190;-83
2021/10/29 06:03:22;;;;;;;43.42;26.98;;;6.10;99.90;;;;;;5097609;28;20270;-84
2021/10/29 06:05:49;;;;;;;41.60;28.42;;;6.20;99.90;;;;;;5090821;28;20243;-85
2021/10/29 06:08:17;;;;;;;45.58;28.20;;;6.10;99.90;;;;;;5086778;28;20576;-86
2021/10/29 06:10:43;;;;;;;42.20;26.13;;;5.80;99.90;;;;;;5085618;28;20230;-84
2021/10/29 06:13:10;;;;;;;46.30;28.58;;;6.10;99.90;;;;;;5084672;28;20589;-84
2021/10/29 06:15:41;;;;;;;40.15;28.17;;;6.10;99.90;;;;;;5084792;28;20228;-84
2021/10/29 06:18:08;;;;;;;40.67;26.65;;;6.10;99.90;;;;;;5084824;28;20225;-86
2021/10/29 06:20:36;;;;;;;42.08;27.90;;;6.00;99.90;;;;;;5082784;28;20715;-84
2021/10/29 06:23:06;;;;;;;45.97;26.58;;;6.00;99.90;;;;;;5079102;28;20693;-84
2021/10/29 06:25:40;;;;;;;42.28;27.25;;;6.20;99.90;;;;;;5077071;28;20198;-84
2021/10/29 06:28:15;;;;;;;84.00;27.95;;;6.10;99.90;;;;;;5095642;28;20186;-84
2021/10/29 06:30:44;;;;;;;42.28;29.20;;;6.00;99.90;;;;;;5096577;28;20197;-84
2021/10/29 06:33:12;;;;;;;45.55;28.55;;;6.00;99.90;;;;;;5093756;28;20214;-84
2021/10/29 06:35:41;;;;;;;42.03;27.27;;;6.00;99.90;;;;;;5093399;28;20266;-84
2021/10/29 06:38:09;;;;;;;41.47;29.38;;;6.00;99.90;;;;;;5097764;28;20261;-84
2021/10/29 06:40:40;;;;;;;41.47;29.60;;;5.80;99.90;;;;;;5096725;28;20218;-86
2021/10/29 06:43:11;;;;;;;44.25;28.10;;;;;;;;;;5095578;28;20226;-84
2021/10/29 06:48:25;;;;;;;41.58;29.73;;;6.00;99.90;;;;;;5099618;28;20205;-84
2021/10/29 06:59:20;;;;;;;41.10;28.10;;;6.00;99.90;;;;;;5089319;28;20253;-85
2021/10/29 07:01:52;;;;;;;42.58;29.35;;;6.30;99.90;;;;;;5095408;28;20221;-85
2021/10/29 07:40:14;;;;;;;37.55;27.00;;;6.80;99.90;;;;;;5100003;28;20262;-83
2021/10/29 07:42:45;;;;;;;37.60;25.85;;;6.60;99.90;;;;;;5077826;28;20218;-84
2021/10/29 07:45:13;;;;;;;36.88;23.73;;;6.40;99.90;;;;;;5087858;28;20191;-84
2021/10/29 07:47:40;;;;;;;41.20;26.13;;;6.80;99.90;;;;;;5087564;28;20213;-84
2021/10/29 07:50:09;;;;;;;38.95;27.23;;;6.80;99.90;;;;;;5091459;28;20198;-86
2021/10/29 07:52:37;;;;;;;37.38;25.70;;;6.90;99.90;;;;;;5090514;28;20203;-83
2021/10/29 07:55:05;;;;;;;39.08;26.13;;;6.90;99.90;;;;;;5090433;28;20225;-85
2021/10/29 07:57:33;;;;;;;38.05;24.88;;;7.10;99.90;;;;;;5089819;28;20206;-85
2021/10/29 08:00:03;;;;;;;36.63;25.38;;;7.30;99.90;;;;;;5089164;28;20701;-83
2021/10/29 08:02:31;;;;;;;40.60;26.70;;;7.40;99.90;;;;;;5088537;28;20202;-84
2021/10/29 08:04:59;;;;;;;36.22;24.40;;;7.00;99.90;;;;;;5087470;28;20709;-84
2021/10/29 08:07:31;;;;;;;40.92;24.27;;;;;;;;;;5099157;28;20197;-86
2021/10/29 08:10:00;;;;;;;34.22;24.80;;;7.30;99.90;;;;;;5092315;28;20191;-85
2021/10/29 08:12:27;;;;;;;38.47;25.20;;;7.30;99.90;;;;;;5100017;28;20245;-83
2021/10/29 08:14:56;;;;;;;32.38;23.13;;;7.40;99.90;;;;;;5099745;28;20236;-85
2021/10/29 08:17:22;;;;;;;35.75;24.73;;;7.50;99.90;;;;;;5099945;28;20185;-85
2021/10/29 08:19:49;;;;;;;36.25;24.90;;;7.50;99.90;;;;;;5099489;28;20264;-83
2021/10/29 08:22:16;;;;;;;45.30;25.65;;;7.50;99.90;;;;;;5099154;28;20217;-84
2021/10/29 08:24:44;;;;;;;34.67;24.58;;;7.60;99.90;;;;;;5097997;28;20256;-85
2021/10/29 08:27:11;;;;;;;38.35;25.15;;;7.70;99.90;;;;;;5089302;28;20202;-84
2021/10/29 08:29:39;;;;;;;47.60;26.17;;;7.70;99.90;;;;;;5086391;28;20203;-83
2021/10/29 08:32:08;;;;;;;35.47;25.83;;;7.80;99.90;;;;;;5086652;28;20202;-85
2021/10/29 08:34:35;;;;;;;32.65;22.67;;;7.90;99.90;;;;;;5086548;28;20248;-83
2021/10/29 08:37:03;;;;;;;35.85;25.13;;;8.10;99.90;;;;;;5089298;28;20761;-84
2021/10/29 08:39:31;;;;;;;39.67;25.77;;;7.80;99.90;;;;;;5092508;28;20219;-85
2021/10/29 08:41:59;;;;;;;39.10;25.93;;;8.00;99.90;;;;;;5085011;28;20201;-84
2021/10/29 08:44:27;;;;;;;32.90;23.05;;;8.10;99.90;;;;;;5085702;28;20479;-85
2021/10/29 08:46:54;;;;;;;33.40;24.73;;;8.00;99.90;;;;;;5086841;28;20206;-85
2021/10/29 08:49:23;;;;;;;31.95;23.23;;;8.10;99.90;;;;;;5085910;28;20198;-84
2021/10/29 08:51:52;;;;;;;32.60;23.67;;;8.30;99.90;;;;;;5084127;28;20199;-82
2021/10/29 08:54:19;;;;;;;36.50;25.50;;;8.30;99.90;;;;;;5085907;28;20271;-84
2021/10/29 08:56:46;;;;;;;30.60;23.23;;;8.40;99.90;;;;;;5087773;28;20419;-86
2021/10/29 08:59:16;;;;;;;29.80;23.83;;;8.50;99.90;;;;;;5087884;28;21033;-83
2021/10/29 09:01:58;;;;;;;31.43;21.87;;;8.60;99.90;;;;;;5087737;28;20908;-83
2021/10/29 09:04:38;;;;;;;31.77;23.30;;;8.30;99.90;;;;;;5087459;28;21011;-84
2021/10/29 09:07:20;;;;;;;30.50;22.70;;;8.70;99.90;;;;;;5092170;28;20462;-83
2021/10/29 09:10:05;;;;;;;31.33;22.40;;;8.70;99.90;;;;;;5098559;28;20454;-83
2021/10/29 09:32:24;;;;;;;32.80;22.33;;;9.30;99.90;;;;;;5084322;28;20387;-84
2021/10/29 09:35:06;;;;;;;26.67;19.10;;;9.40;99.90;;;;;;5086733;28;20484;-84
2021/10/29 09:37:38;;;;;;;27.97;20.77;;;9.60;99.90;;;;;;5086222;28;20445;-85
2021/10/29 09:40:13;;;;;;;28.33;19.80;;;9.40;99.90;;;;;;5085459;28;20472;-85
2021/10/29 09:42:41;;;;;;;31.73;20.63;;;9.70;99.90;;;;;;5086036;28;20403;-85
2021/10/29 09:45:17;;;;;;;25.33;20.47;;;9.40;99.90;;;;;;5085973;28;20427;-85
2021/10/29 09:47:48;;;;;;;32.73;23.17;;;9.90;99.90;;;;;;5086064;28;20478;-85
2021/10/29 09:50:25;;;;;;;27.33;19.83;;;9.90;99.90;;;;;;5085902;28;20447;-85
2021/10/29 09:55:52;;;;;;;31.03;20.83;;;10.00;99.90;;;;;;5080698;28;20412;-84
2021/10/29 09:58:20;;;;;;;28.87;20.40;;;10.20;99.90;;;;;;5095465;28;20428;-86
2021/10/29 10:00:47;;;;;;;30.90;23.23;;;9.90;99.90;;;;;;5087512;28;20419;-83
2021/10/29 10:03:19;;;;;;;37.23;23.80;;;10.20;99.90;;;;;;5086180;28;20465;-85
2021/10/29 10:05:46;;;;;;;30.57;20.33;;;10.30;99.90;;;;;;5084685;28;20791;-85
2021/10/29 10:08:20;;;;;;;31.13;20.87;;;10.30;99.90;;;;;;5086306;28;20456;-85
2021/10/29 10:10:50;;;;;;;27.93;20.07;;;10.40;99.90;;;;;;5087675;28;20524;-85
2021/10/29 10:13:18;;;;;;;29.63;21.73;;;10.50;99.90;;;;;;5090048;28;20472;-86
2021/10/29 10:15:48;;;;;;;30.27;21.03;;;10.50;99.90;;;;;;5091204;28;20991;-84
2021/10/29 10:18:15;;;;;;;26.17;20.43;;;10.50;99.90;;;;;;5098638;28;20445;-86
2021/10/29 10:20:43;;;;;;;29.10;21.30;;;10.60;99.90;;;;;;5100505;28;20420;-85
2021/10/29 10:23:13;;;;;;;29.70;20.70;;;10.60;99.90;;;;;;5100845;28;20590;-85
2021/10/29 10:25:55;;;;;;;29.03;19.87;;;10.70;99.90;;;;;;5101748;28;20429;-85
2021/10/29 10:40:35;;;;;;;26.80;20.53;;;11.10;99.90;;;;;;5099707;28;20396;-85
2021/10/29 10:43:09;;;;;;;24.57;19.57;;;11.20;99.90;;;;;;5088848;28;20511;-85
2021/10/29 10:45:40;;;;;;;25.43;19.00;;;11.30;99.90;;;;;;5090881;28;20527;-85
2021/10/29 10:48:14;;;;;;;24.67;20.00;;;11.70;99.90;;;;;;5096460;28;20428;-85
2021/10/29 10:50:47;;;;;;;29.30;19.97;;;11.50;99.90;;;;;;5094218;28;20461;-86
2021/10/29 10:53:19;;;;;;;25.13;20.60;;;11.50;99.90;;;;;;5091980;28;20478;-85
2021/10/29 10:56:11;;;;;;;26.80;20.50;;;11.50;99.90;;;;;;5091581;28;20500;-83
2021/10/29 10:58:51;;;;;;;26.37;18.90;;;11.50;99.90;;;;;;5092636;28;20453;-84
2021/10/29 11:01:38;;;;;;;25.73;19.73;;;11.20;99.90;;;;;;5092164;28;20434;-85
2021/10/29 11:10:11;;;;;;;29.73;21.23;;;11.70;99.90;;;;;;5057923;28;20468;-85
2021/10/29 11:13:06;;;;;;;25.20;19.53;;;11.80;99.90;;;;;;5090443;28;20460;-86
2021/10/29 11:15:35;;;;;;;25.90;19.30;;;11.90;99.90;;;;;;5092355;28;20428;-85
2021/10/29 11:18:04;;;;;;;24.57;18.70;;;11.70;99.90;;;;;;5088389;28;20448;-85
2021/10/29 11:20:46;;;;;;;27.77;20.77;;;12.40;99.90;;;;;;5084712;28;20484;-84
2021/10/29 11:26:01;;;;;;;26.00;17.73;;;12.10;99.90;;;;;;4983077;26;20481;-85
2021/10/29 11:28:33;;;;;;;25.33;18.70;;;12.40;99.90;;;;;;5039745;28;20491;-85
2021/10/29 11:31:03;;;;;;;24.67;18.80;;;12.60;99.90;;;;;;5038091;28;20471;-86
2021/10/29 11:33:30;;;;;;;23.23;18.87;;;12.30;99.90;;;;;;5031065;28;20471;-85
2021/10/29 11:35:59;;;;;;;23.27;18.30;;;12.30;99.90;;;;;;5027042;28;20523;-86
2021/10/29 11:38:26;;;;;;;21.00;18.00;;;12.60;99.90;;;;;;5031924;28;20470;-86
2021/10/29 11:40:53;;;;;;;23.30;18.10;;;12.70;99.90;;;;;;5034421;28;20454;-86
2021/10/29 11:43:22;;;;;;;24.90;19.27;;;12.20;99.90;;;;;;5034371;28;20853;-85
2021/10/29 11:45:49;;;;;;;27.20;19.57;;;;;;;;;;5029836;28;20456;-87
2021/10/29 11:48:17;;;;;;;25.93;21.23;;;12.60;99.90;;;;;;5028246;28;20519;-86
2021/10/29 11:50:44;;;;;;;28.50;20.43;;;12.50;99.90;;;;;;5030787;28;20498;-85
2021/10/29 11:53:13;;;;;;;25.93;20.73;;;12.50;99.90;;;;;;5036791;28;20470;-85
2021/10/29 11:55:44;;;;;;;30.20;21.50;;;12.60;99.90;;;;;;5037126;28;20455;-87
2021/10/29 11:58:18;;;;;;;27.23;20.60;;;12.10;99.90;;;;;;5033624;28;20407;-85
2021/10/29 12:00:52;;;;;;;28.90;20.47;;;12.80;99.90;;;;;;5033964;28;20495;-86
2021/10/29 12:07:13;;;;;;;26.50;20.43;;;13.10;99.90;;;;;;5038487;28;20403;-85
2021/10/29 12:09:28;;;;;;;27.30;20.60;;;12.80;99.90;;;;;;5036130;28;20454;-86
2021/10/29 12:11:56;;;;;;;26.07;19.97;;;12.80;99.90;;;;;;5036130;28;20463;-86
2021/10/29 12:14:31;;;;;;;24.43;20.50;;;12.90;99.90;;;;;;5036556;28;20490;-85
2021/10/29 12:17:05;;;;;;;25.07;20.97;;;12.80;99.90;;;;;;5036509;28;20481;-85
2021/10/29 12:19:36;;;;;;;25.57;20.07;;;12.90;99.90;;;;;;5033288;28;20486;-86
2021/10/29 12:22:10;;;;;;;22.20;17.60;;;12.90;99.90;;;;;;5034662;28;20427;-86
2021/10/29 12:24:44;;;;;;;23.77;20.07;;;12.70;99.90;;;;;;5038124;28;20494;-85
2021/10/29 12:27:22;;;;;;;29.10;21.90;;;12.70;99.90;;;;;;5039364;28;20443;-84
2021/10/29 12:30:17;;;;;;;23.07;19.40;;;12.90;99.90;;;;;;5039492;28;20450;-85
2021/10/29 12:33:26;;;;;;;23.73;20.00;;;13.00;99.90;;;;;;5039560;28;20428;-85
2021/10/29 12:53:14;;;;;;;23.23;20.13;;;13.10;99.90;;;;;;5036707;28;20426;-86
2021/10/29 13:04:12;;;;;;;22.67;18.50;;;13.10;99.90;;;;;;5024040;28;20846;-86
2021/10/29 13:06:42;;;;;;;22.67;19.27;;;13.10;99.90;;;;;;5030729;28;20435;-86
2021/10/29 13:09:16;;;;;;;22.93;19.40;;;13.10;99.90;;;;;;5026101;28;20423;-86
2021/10/29 13:11:49;;;;;;;24.13;20.47;;;13.10;99.90;;;;;;5034909;28;20864;-85
2021/10/29 13:14:21;;;;;;;25.10;19.23;;;13.20;99.90;;;;;;5029368;28;20872;-86
2021/10/29 13:16:49;;;;;;;20.67;18.47;;;13.30;99.90;;;;;;5026379;28;20431;-86
2021/10/29 13:19:32;;;;;;;24.17;18.33;;;13.20;99.90;;;;;;5030457;28;20455;-86
2021/10/29 13:22:42;;;;;;;26.63;19.23;;;13.20;99.90;;;;;;5032130;28;20429;-85
2021/10/29 13:36:17;;;;;;;20.90;17.00;;;13.30;99.90;;;;;;5032742;28;20439;-85
2021/10/29 13:55:27;;;;;;;23.73;17.13;;;13.70;99.90;;;;;;5034780;28;20783;-86
2021/10/29 13:58:13;;;;;;;20.97;18.77;;;13.30;99.90;;;;;;5037484;28;20439;-85
2021/10/29 14:03:41;;;;;;;20.93;17.47;;;13.30;99.90;;;;;;5032915;28;20422;-86
2021/10/29 14:28:15;;;;;;;21.57;17.23;;;13.30;99.90;;;;;;5018677;28;20402;-85
2021/10/29 14:30:51;;;;;;;22.23;18.47;;;13.30;99.90;;;;;;5018357;28;20475;-86
2021/10/29 14:33:20;;;;;;;19.80;17.77;;;13.00;99.90;;;;;;5018885;28;20502;-86
2021/10/29 14:35:51;;;;;;;19.60;16.27;;;;;;;;;;5018224;28;20550;-85
2021/10/29 14:38:22;;;;;;;18.47;16.57;;;13.30;99.90;;;;;;5017499;28;20440;-85
2021/10/29 14:40:52;;;;;;;20.53;18.27;;;13.20;99.90;;;;;;5021103;28;20444;-86
2021/10/29 14:43:22;;;;;;;20.43;16.80;;;13.00;99.90;;;;;;5023907;28;20507;-86
2021/10/29 14:45:59;;;;;;;22.57;18.03;;;12.90;99.90;;;;;;5020214;28;20475;-84
2021/10/29 14:48:33;;;;;;;23.43;18.40;;;13.10;99.90;;;;;;5022541;28;20462;-86
2021/10/29 14:51:20;;;;;;;22.60;18.17;;;13.20;99.90;;;;;;5020523;28;20531;-86
2021/10/29 15:29:48;;;;;;;34.50;25.52;;;12.20;99.90;;;;;;5012380;28;20438;-86
2021/10/29 15:32:34;;;;;;;25.10;21.00;;;12.20;99.90;;;;;;5025296;28;20598;-86
2021/10/29 15:43:22;;;;;;;34.60;22.80;;;11.90;99.90;;;;;;5022742;28;20415;-85
2021/10/29 15:45:50;;;;;;;27.37;22.00;;;11.80;99.90;;;;;;5024921;28;20456;-86
2021/10/29 15:48:20;;;;;;;26.80;21.73;;;11.80;99.90;;;;;;5024590;28;20451;-86
2021/10/29 15:50:48;;;;;;;32.07;22.90;;;;;;;;;;5024526;28;21001;-85
2021/10/29 15:53:15;;;;;;;28.07;22.73;;;11.30;99.90;;;;;;5030786;28;20496;-85
2021/10/29 15:55:47;;;;;;;24.33;19.80;;;11.50;99.90;;;;;;5023984;28;20473;-85
2021/10/29 15:58:23;;;;;;;30.40;21.30;;;11.40;99.90;;;;;;5024009;28;20514;-85
2021/10/29 16:03:48;;;;;;;29.97;23.03;;;11.50;99.90;;;;;;5032002;28;20447;-83
2021/10/29 16:17:18;;;;;;;31.33;23.47;;;11.30;99.90;;;;;;5035621;28;20427;-85
2021/10/29 16:19:46;;;;;;;31.07;23.80;;;11.20;99.90;;;;;;5023931;28;20478;-85
2021/10/29 16:22:19;;;;;;;26.50;21.60;;;11.10;99.90;;;;;;5022695;28;20444;-85
2021/10/29 16:24:54;;;;;;;24.83;21.27;;;11.20;99.90;;;;;;5021893;28;20561;-85
2021/10/29 16:27:22;;;;;;;30.37;21.07;;;11.20;99.90;;;;;;5021176;28;20494;-86
2021/10/29 16:29:50;;;;;;;28.67;22.43;;;11.20;99.90;;;;;;5021265;28;20448;-85
2021/10/29 16:32:23;;;;;;;25.93;22.03;;;11.20;99.90;;;;;;5018739;28;20567;-85
2021/10/29 16:34:50;;;;;;;27.63;22.07;;;;;;;;;;5021176;28;20831;-87
2021/10/29 16:37:18;;;;;;;29.67;23.40;;;11.10;99.90;;;;;;5027366;28;20451;-85
2021/10/29 16:39:48;;;;;;;27.80;22.37;;;11.10;99.90;;;;;;5027729;28;20474;-85
2021/10/29 16:42:15;;;;;;;36.27;24.43;;;11.10;99.90;;;;;;5020989;28;20447;-85
2021/10/29 16:44:42;;;;;;;27.97;22.20;;;11.10;99.90;;;;;;5023250;28;20467;-85
2021/10/29 16:47:11;;;;;;;29.80;24.03;;;11.70;99.90;;;;;;5021829;28;20432;-86
2021/10/29 16:49:37;;;;;;;32.87;25.07;;;11.00;99.90;;;;;;5020977;28;20535;-84
2021/10/29 16:52:05;;;;;;;36.93;26.20;;;11.60;99.90;;;;;;5020291;28;21071;-85
2021/10/29 16:54:33;;;;;;;32.70;26.60;;;10.90;99.90;;;;;;5020593;28;20475;-85
2021/10/29 16:56:59;;;;;;;33.23;26.57;;;10.90;99.90;;;;;;5022583;28;20486;-86
2021/10/29 16:59:26;;;;;;;34.53;27.03;;;10.80;99.90;;;;;;5026462;28;20443;-85
2021/10/29 17:01:53;;;;;;;37.30;27.53;;;10.80;99.90;;;;;;5026439;28;20938;-86
2021/10/29 17:04:19;;;;;;;35.00;26.50;;;10.70;99.90;;;;;;5022205;28;20441;-86
2021/10/29 17:06:46;;;;;;;36.10;27.83;;;10.80;99.90;;;;;;5023868;28;20794;-86
2021/10/29 17:09:13;;;;;;;36.13;27.00;;;10.70;99.90;;;;;;5024410;28;20425;-86